Tropical Cyclones
[Index]
Main Index Home Page Stock Weather Photos Extreme Storms Discussion Storm News and Storm Chasing Reports Tropical Cyclones / Hurricanes / Typhoons Weather Data and Links Wild Fires / Bushfires Weather Observation Techniques Weather Picture Catalogue Tornado Pictures and Reports Stock Video Footage and DVDs for sale
Season 1970-1971 Tropical Cyclone MYRTLE-GINETTE Track Map
Season 1970-1971 Summaries: [BoM-AU] [JTWC-AU] [JTWC-SIO] [JTWC-SPAC] [JTWC-SH]
<<- Previous TC | JTWC 1970-1971 Season | Next TC ->>

click for intensity scale information  Lat/long Grid: Show Hide

 Date Labels: Show Hide

Joint Typhoon Warning Centre Cyclone Data

Name: MYRTLE-GINETTE
Number: 753 / 7108

17 Jan 1971 06:00 UTC to 31 Jan 1971 06:00 UTC

    date/time    lat    long     hPa   cat  kts
1971-01-17 06   14.9    89.9                              
1971-01-17 12   14.9    87.7                              
1971-01-17 18   14.9    85.9                              
1971-01-18 00   15.0    84.4                              
1971-01-18 06   15.0    83.0                              
1971-01-18 12   15.0    81.9                              
1971-01-18 18   14.9    80.7                              
1971-01-19 00   14.9    79.2                              
1971-01-19 06   14.9    77.7                              
1971-01-19 12   14.8    76.7                              
1971-01-19 18   14.8    75.8                              
1971-01-20 00   14.8    74.7                              
1971-01-20 06   14.9    73.6                              
1971-01-20 12   15.0    72.8                              
1971-01-20 18   15.1    72.0                              
1971-01-21 00   15.3    71.2                              
1971-01-21 06   15.5    70.3                              
1971-01-21 12   15.8    69.2                              
1971-01-21 18   16.4    68.1                              
1971-01-22 00   17.2    67.0                              
1971-01-22 06   18.1    66.0                              
1971-01-22 12   19.1    65.5                              
1971-01-22 18   20.2    64.9                              
1971-01-23 00   21.1    63.5                              
1971-01-23 06   21.8    62.1                              
1971-01-23 12   22.0    61.1                              
1971-01-23 18   22.2    60.1                              
1971-01-24 00   22.6    59.0                              
1971-01-24 06   22.9    57.9                              
1971-01-24 12   23.0    57.0                              
1971-01-24 18   23.1    56.2                              
1971-01-25 00   23.5    55.4                              
1971-01-25 06   23.9    54.6                              
1971-01-25 12   24.0    54.1                              
1971-01-25 18   24.2    53.9                              
1971-01-26 00   24.5    53.9                              
1971-01-26 06   24.7    54.1                              
1971-01-26 12   24.9    54.6                              
1971-01-26 18   25.0    55.1                              
1971-01-27 00   25.1    55.3                              
1971-01-27 06   25.2    55.5                              
1971-01-27 12   25.3    56.1                              
1971-01-27 18   25.3    56.7                              
1971-01-28 00   25.4    57.1                              
1971-01-28 06   25.6    57.5                              
1971-01-28 12   25.9    58.1                              
1971-01-28 18   26.2    58.7                              
1971-01-29 00   26.4    59.0                              
1971-01-29 06   27.1    59.2                              
1971-01-29 12   28.5    59.7                              
1971-01-29 18   30.1    60.2                              
1971-01-30 00   31.6    60.6                              
1971-01-30 06   33.0    61.0                              
1971-01-30 12   34.1    61.9                              
1971-01-30 18   34.9    63.4                              
1971-01-31 00   35.6    65.0                              
1971-01-31 06   36.2    66.9                              
Winds are 1-min average.

Tropical cyclone tracks developed by Michael Bath using data from the Joint Typhoon Warning Centre Best Tracks and Google Maps.


[Australian Severe Weather index] [Copyright Notice] [Email Contacts] [Search This Site] [Privacy Policy]
Document: tropical_cyclone_myrtle-ginette.htm Updated: 18 September 2016